sensor_id;sensor_type;location;lat;lon;timestamp;temperature;humidity
56725;DHT22;42608;52.776;6.968;2023-08-06T00:00:13;15.10;99.90
56725;DHT22;42608;52.776;6.968;2023-08-06T00:02:38;15.00;99.90
56725;DHT22;42608;52.776;6.968;2023-08-06T00:05:04;15.00;99.90
56725;DHT22;42608;52.776;6.968;2023-08-06T00:07:30;15.00;99.90
56725;DHT22;42608;52.776;6.968;2023-08-06T00:09:55;15.00;99.90
56725;DHT22;42608;52.776;6.968;2023-08-06T00:12:21;15.00;99.90
56725;DHT22;42608;52.776;6.968;2023-08-06T00:14:50;14.90;99.90
56725;DHT22;42608;52.776;6.968;2023-08-06T00:17:15;14.90;99.90
56725;DHT22;42608;52.776;6.968;2023-08-06T00:19:41;14.90;99.90
56725;DHT22;42608;52.776;6.968;2023-08-06T00:22:06;14.90;99.90
56725;DHT22;42608;52.776;6.968;2023-08-06T00:24:32;14.90;99.90
56725;DHT22;42608;52.776;6.968;2023-08-06T00:26:58;14.90;99.90
56725;DHT22;42608;52.776;6.968;2023-08-06T00:29:23;14.90;99.90
56725;DHT22;42608;52.776;6.968;2023-08-06T00:31:49;14.80;99.90
56725;DHT22;42608;52.776;6.968;2023-08-06T00:34:14;14.80;99.90
56725;DHT22;42608;52.776;6.968;2023-08-06T00:36:40;14.80;99.90
56725;DHT22;42608;52.776;6.968;2023-08-06T00:39:06;14.80;99.90
56725;DHT22;42608;52.776;6.968;2023-08-06T00:41:32;14.80;99.90
56725;DHT22;42608;52.776;6.968;2023-08-06T00:43:58;14.70;99.90
56725;DHT22;42608;52.776;6.968;2023-08-06T00:46:23;14.70;99.90
56725;DHT22;42608;52.776;6.968;2023-08-06T00:48:49;14.70;99.90
56725;DHT22;42608;52.776;6.968;2023-08-06T00:51:15;14.60;99.90
56725;DHT22;42608;52.776;6.968;2023-08-06T00:53:41;14.60;99.90
56725;DHT22;42608;52.776;6.968;2023-08-06T00:56:07;14.60;99.90
56725;DHT22;42608;52.776;6.968;2023-08-06T00:58:34;14.60;99.90
56725;DHT22;42608;52.776;6.968;2023-08-06T01:01:01;14.60;99.90
56725;DHT22;42608;52.776;6.968;2023-08-06T01:03:26;14.60;99.90
56725;DHT22;42608;52.776;6.968;2023-08-06T01:05:52;14.50;99.90
56725;DHT22;42608;52.776;6.968;2023-08-06T01:16:06;14.60;99.90
56725;DHT22;42608;52.776;6.968;2023-08-06T01:18:33;14.60;99.90
56725;DHT22;42608;52.776;6.968;2023-08-06T01:20:58;14.60;99.90
56725;DHT22;42608;52.776;6.968;2023-08-06T01:23:24;14.60;99.90
56725;DHT22;42608;52.776;6.968;2023-08-06T01:28:23;14.60;99.90
56725;DHT22;42608;52.776;6.968;2023-08-06T01:30:52;14.60;99.90
56725;DHT22;42608;52.776;6.968;2023-08-06T01:33:21;14.60;99.90
56725;DHT22;42608;52.776;6.968;2023-08-06T01:35:48;14.70;99.90
56725;DHT22;42608;52.776;6.968;2023-08-06T01:38:15;14.70;99.90
56725;DHT22;42608;52.776;6.968;2023-08-06T01:40:40;14.70;99.90
56725;DHT22;42608;52.776;6.968;2023-08-06T01:43:06;14.60;99.90
56725;DHT22;42608;52.776;6.968;2023-08-06T01:45:31;14.60;99.90
56725;DHT22;42608;52.776;6.968;2023-08-06T01:47:57;14.60;99.90
56725;DHT22;42608;52.776;6.968;2023-08-06T01:50:23;14.60;99.90
56725;DHT22;42608;52.776;6.968;2023-08-06T01:52:48;14.60;99.90
56725;DHT22;42608;52.776;6.968;2023-08-06T01:55:14;14.60;99.90
56725;DHT22;42608;52.776;6.968;2023-08-06T01:57:39;14.60;99.90
56725;DHT22;42608;52.776;6.968;2023-08-06T02:00:05;14.60;99.90
56725;DHT22;42608;52.776;6.968;2023-08-06T02:02:31;14.60;99.90
56725;DHT22;42608;52.776;6.968;2023-08-06T02:04:56;14.60;99.90
56725;DHT22;42608;52.776;6.968;2023-08-06T02:07:23;14.60;99.90
56725;DHT22;42608;52.776;6.968;2023-08-06T02:09:49;14.60;99.90
56725;DHT22;42608;52.776;6.968;2023-08-06T02:12:14;14.60;99.90
56725;DHT22;42608;52.776;6.968;2023-08-06T02:14:40;14.60;99.90
56725;DHT22;42608;52.776;6.968;2023-08-06T02:17:05;14.50;99.90
56725;DHT22;42608;52.776;6.968;2023-08-06T02:19:31;14.50;99.90
56725;DHT22;42608;52.776;6.968;2023-08-06T02:21:56;14.50;99.90
56725;DHT22;42608;52.776;6.968;2023-08-06T02:24:22;14.50;99.90
56725;DHT22;42608;52.776;6.968;2023-08-06T02:26:47;14.50;99.90
56725;DHT22;42608;52.776;6.968;2023-08-06T02:29:16;14.50;99.90
56725;DHT22;42608;52.776;6.968;2023-08-06T02:31:42;14.50;99.90
56725;DHT22;42608;52.776;6.968;2023-08-06T02:34:08;14.40;99.90
56725;DHT22;42608;52.776;6.968;2023-08-06T02:36:33;14.50;99.90
56725;DHT22;42608;52.776;6.968;2023-08-06T02:38:59;14.50;99.90
56725;DHT22;42608;52.776;6.968;2023-08-06T02:41:24;14.50;99.90
56725;DHT22;42608;52.776;6.968;2023-08-06T02:43:50;14.40;99.90
56725;DHT22;42608;52.776;6.968;2023-08-06T02:46:15;14.40;99.90
56725;DHT22;42608;52.776;6.968;2023-08-06T02:48:41;14.40;99.90
56725;DHT22;42608;52.776;6.968;2023-08-06T02:51:06;14.40;99.90
56725;DHT22;42608;52.776;6.968;2023-08-06T02:53:32;14.50;99.90
56725;DHT22;42608;52.776;6.968;2023-08-06T02:55:57;14.50;99.90
56725;DHT22;42608;52.776;6.968;2023-08-06T02:58:24;14.50;99.90
56725;DHT22;42608;52.776;6.968;2023-08-06T03:01:02;14.40;99.90
56725;DHT22;42608;52.776;6.968;2023-08-06T03:03:29;14.50;99.90
56725;DHT22;42608;52.776;6.968;2023-08-06T03:05:54;14.40;99.90
56725;DHT22;42608;52.776;6.968;2023-08-06T03:08:20;14.40;99.90
56725;DHT22;42608;52.776;6.968;2023-08-06T03:10:48;14.40;99.90
56725;DHT22;42608;52.776;6.968;2023-08-06T03:13:13;14.40;99.90
56725;DHT22;42608;52.776;6.968;2023-08-06T03:15:39;14.40;99.90
56725;DHT22;42608;52.776;6.968;2023-08-06T03:18:05;14.40;99.90
56725;DHT22;42608;52.776;6.968;2023-08-06T03:20:32;14.30;99.90
56725;DHT22;42608;52.776;6.968;2023-08-06T03:22:57;14.30;99.90
56725;DHT22;42608;52.776;6.968;2023-08-06T03:25:23;14.30;99.90
56725;DHT22;42608;52.776;6.968;2023-08-06T03:27:48;14.30;99.90
56725;DHT22;42608;52.776;6.968;2023-08-06T03:30:14;14.30;99.90
56725;DHT22;42608;52.776;6.968;2023-08-06T03:32:39;14.30;99.90
56725;DHT22;42608;52.776;6.968;2023-08-06T03:35:05;14.30;99.90
56725;DHT22;42608;52.776;6.968;2023-08-06T03:37:31;14.30;99.90
56725;DHT22;42608;52.776;6.968;2023-08-06T03:39:56;14.30;99.90
56725;DHT22;42608;52.776;6.968;2023-08-06T03:42:22;14.30;99.90
56725;DHT22;42608;52.776;6.968;2023-08-06T03:44:47;14.40;99.90
56725;DHT22;42608;52.776;6.968;2023-08-06T03:47:13;14.40;99.90
56725;DHT22;42608;52.776;6.968;2023-08-06T03:49:39;14.40;99.90
56725;DHT22;42608;52.776;6.968;2023-08-06T03:52:05;14.40;99.90
56725;DHT22;42608;52.776;6.968;2023-08-06T03:54:30;14.40;99.90
56725;DHT22;42608;52.776;6.968;2023-08-06T03:56:56;14.40;99.90
56725;DHT22;42608;52.776;6.968;2023-08-06T03:59:21;14.40;99.90
56725;DHT22;42608;52.776;6.968;2023-08-06T04:01:47;14.40;99.90
56725;DHT22;42608;52.776;6.968;2023-08-06T04:04:12;14.40;99.90
56725;DHT22;42608;52.776;6.968;2023-08-06T04:06:38;14.40;99.90
56725;DHT22;42608;52.776;6.968;2023-08-06T04:09:04;14.30;99.90
56725;DHT22;42608;52.776;6.968;2023-08-06T04:11:29;14.30;99.90
56725;DHT22;42608;52.776;6.968;2023-08-06T04:14:01;14.30;99.90
56725;DHT22;42608;52.776;6.968;2023-08-06T04:16:26;14.30;99.90
56725;DHT22;42608;52.776;6.968;2023-08-06T04:18:52;14.30;99.90
56725;DHT22;42608;52.776;6.968;2023-08-06T04:21:18;14.30;99.90
56725;DHT22;42608;52.776;6.968;2023-08-06T04:23:44;14.30;99.90
56725;DHT22;42608;52.776;6.968;2023-08-06T04:26:09;14.30;99.90
56725;DHT22;42608;52.776;6.968;2023-08-06T04:28:35;14.30;99.90
56725;DHT22;42608;52.776;6.968;2023-08-06T04:31:01;14.30;99.90
56725;DHT22;42608;52.776;6.968;2023-08-06T04:33:26;14.30;99.90
56725;DHT22;42608;52.776;6.968;2023-08-06T04:35:55;14.30;99.90
56725;DHT22;42608;52.776;6.968;2023-08-06T04:38:22;14.40;99.90
56725;DHT22;42608;52.776;6.968;2023-08-06T04:40:48;14.30;99.90
56725;DHT22;42608;52.776;6.968;2023-08-06T04:43:13;14.30;99.90
56725;DHT22;42608;52.776;6.968;2023-08-06T04:45:45;14.40;99.90
56725;DHT22;42608;52.776;6.968;2023-08-06T04:48:11;14.40;99.90
56725;DHT22;42608;52.776;6.968;2023-08-06T04:50:36;14.40;99.90
56725;DHT22;42608;52.776;6.968;2023-08-06T04:53:02;14.40;99.90
56725;DHT22;42608;52.776;6.968;2023-08-06T04:55:27;14.40;99.90
56725;DHT22;42608;52.776;6.968;2023-08-06T04:57:53;14.40;99.90
56725;DHT22;42608;52.776;6.968;2023-08-06T05:00:18;14.50;99.90
56725;DHT22;42608;52.776;6.968;2023-08-06T05:02:44;14.50;99.90
56725;DHT22;42608;52.776;6.968;2023-08-06T05:05:09;14.50;99.90
56725;DHT22;42608;52.776;6.968;2023-08-06T05:07:35;14.50;99.90
56725;DHT22;42608;52.776;6.968;2023-08-06T05:10:01;14.50;99.90
56725;DHT22;42608;52.776;6.968;2023-08-06T05:12:26;14.50;99.90
56725;DHT22;42608;52.776;6.968;2023-08-06T05:14:52;14.50;99.90
56725;DHT22;42608;52.776;6.968;2023-08-06T05:17:17;14.50;99.90
56725;DHT22;42608;52.776;6.968;2023-08-06T05:19:43;14.50;99.90
56725;DHT22;42608;52.776;6.968;2023-08-06T05:22:08;14.50;99.90
56725;DHT22;42608;52.776;6.968;2023-08-06T05:24:34;14.60;99.90
56725;DHT22;42608;52.776;6.968;2023-08-06T05:26:59;14.60;99.90
56725;DHT22;42608;52.776;6.968;2023-08-06T05:29:25;14.60;99.90
56725;DHT22;42608;52.776;6.968;2023-08-06T05:31:52;14.60;99.90
56725;DHT22;42608;52.776;6.968;2023-08-06T05:34:17;14.70;99.90
56725;DHT22;42608;52.776;6.968;2023-08-06T05:36:43;14.70;99.90
56725;DHT22;42608;52.776;6.968;2023-08-06T05:39:09;14.70;99.90
56725;DHT22;42608;52.776;6.968;2023-08-06T05:41:34;14.70;99.90
56725;DHT22;42608;52.776;6.968;2023-08-06T05:44:00;14.70;99.90
56725;DHT22;42608;52.776;6.968;2023-08-06T05:46:25;14.70;99.90
56725;DHT22;42608;52.776;6.968;2023-08-06T05:48:51;14.70;99.90
56725;DHT22;42608;52.776;6.968;2023-08-06T05:51:16;14.70;99.90
56725;DHT22;42608;52.776;6.968;2023-08-06T05:53:42;14.70;99.90
56725;DHT22;42608;52.776;6.968;2023-08-06T05:56:07;14.70;99.90
56725;DHT22;42608;52.776;6.968;2023-08-06T05:58:33;14.80;99.90
56725;DHT22;42608;52.776;6.968;2023-08-06T06:00:59;14.80;99.90
56725;DHT22;42608;52.776;6.968;2023-08-06T06:03:24;14.80;99.90
56725;DHT22;42608;52.776;6.968;2023-08-06T06:05:50;14.90;99.90
56725;DHT22;42608;52.776;6.968;2023-08-06T06:08:15;14.90;99.90
56725;DHT22;42608;52.776;6.968;2023-08-06T06:10:41;14.90;99.90
56725;DHT22;42608;52.776;6.968;2023-08-06T06:13:06;14.90;99.90
56725;DHT22;42608;52.776;6.968;2023-08-06T06:15:32;14.90;99.90
56725;DHT22;42608;52.776;6.968;2023-08-06T06:17:57;15.00;99.90
56725;DHT22;42608;52.776;6.968;2023-08-06T06:20:23;15.00;99.90
56725;DHT22;42608;52.776;6.968;2023-08-06T06:22:48;15.00;99.90
56725;DHT22;42608;52.776;6.968;2023-08-06T06:25:14;15.00;99.90
56725;DHT22;42608;52.776;6.968;2023-08-06T06:27:40;15.00;99.90
56725;DHT22;42608;52.776;6.968;2023-08-06T06:30:05;15.10;99.90
56725;DHT22;42608;52.776;6.968;2023-08-06T06:32:31;15.10;99.90
56725;DHT22;42608;52.776;6.968;2023-08-06T06:34:57;15.20;99.90
56725;DHT22;42608;52.776;6.968;2023-08-06T06:37:23;15.10;99.90
56725;DHT22;42608;52.776;6.968;2023-08-06T06:39:49;15.20;99.90
56725;DHT22;42608;52.776;6.968;2023-08-06T06:42:15;15.20;99.90
56725;DHT22;42608;52.776;6.968;2023-08-06T06:44:40;15.20;99.90
56725;DHT22;42608;52.776;6.968;2023-08-06T06:47:08;15.20;99.90
56725;DHT22;42608;52.776;6.968;2023-08-06T06:49:34;15.20;99.90
56725;DHT22;42608;52.776;6.968;2023-08-06T06:51:59;15.20;99.90
56725;DHT22;42608;52.776;6.968;2023-08-06T06:54:25;15.20;99.90
56725;DHT22;42608;52.776;6.968;2023-08-06T06:56:51;15.20;99.90
56725;DHT22;42608;52.776;6.968;2023-08-06T06:59:16;15.30;99.90
56725;DHT22;42608;52.776;6.968;2023-08-06T07:01:42;15.30;99.90
56725;DHT22;42608;52.776;6.968;2023-08-06T07:04:07;15.40;99.90
56725;DHT22;42608;52.776;6.968;2023-08-06T07:06:33;15.30;99.90
56725;DHT22;42608;52.776;6.968;2023-08-06T07:08:59;15.40;99.90
56725;DHT22;42608;52.776;6.968;2023-08-06T07:11:24;15.40;99.90
56725;DHT22;42608;52.776;6.968;2023-08-06T07:13:55;15.40;99.90
56725;DHT22;42608;52.776;6.968;2023-08-06T07:16:21;15.40;99.90
56725;DHT22;42608;52.776;6.968;2023-08-06T07:18:46;15.40;99.90
56725;DHT22;42608;52.776;6.968;2023-08-06T07:21:12;15.50;99.90
56725;DHT22;42608;52.776;6.968;2023-08-06T07:23:37;15.50;99.90
56725;DHT22;42608;52.776;6.968;2023-08-06T07:26:03;15.50;99.90
56725;DHT22;42608;52.776;6.968;2023-08-06T07:28:28;15.50;99.90
56725;DHT22;42608;52.776;6.968;2023-08-06T07:30:54;15.60;99.90
56725;DHT22;42608;52.776;6.968;2023-08-06T07:33:20;15.60;99.90
56725;DHT22;42608;52.776;6.968;2023-08-06T07:35:45;15.60;99.90
56725;DHT22;42608;52.776;6.968;2023-08-06T07:38:11;15.60;99.90
56725;DHT22;42608;52.776;6.968;2023-08-06T07:40:36;15.50;99.90
56725;DHT22;42608;52.776;6.968;2023-08-06T07:43:03;15.60;99.90
56725;DHT22;42608;52.776;6.968;2023-08-06T07:45:32;15.60;99.90
56725;DHT22;42608;52.776;6.968;2023-08-06T07:47:57;15.60;99.90
56725;DHT22;42608;52.776;6.968;2023-08-06T07:50:23;15.60;99.90
56725;DHT22;42608;52.776;6.968;2023-08-06T07:52:48;15.60;99.90
56725;DHT22;42608;52.776;6.968;2023-08-06T07:55:14;15.60;99.90
56725;DHT22;42608;52.776;6.968;2023-08-06T07:57:41;15.60;99.90
56725;DHT22;42608;52.776;6.968;2023-08-06T08:00:06;15.70;99.90
56725;DHT22;42608;52.776;6.968;2023-08-06T08:02:32;15.70;99.90
56725;DHT22;42608;52.776;6.968;2023-08-06T08:04:57;15.70;99.90
56725;DHT22;42608;52.776;6.968;2023-08-06T08:07:23;15.70;99.90
56725;DHT22;42608;52.776;6.968;2023-08-06T08:09:49;15.80;99.90
56725;DHT22;42608;52.776;6.968;2023-08-06T08:12:14;15.80;99.90
56725;DHT22;42608;52.776;6.968;2023-08-06T08:14:40;15.90;99.90
56725;DHT22;42608;52.776;6.968;2023-08-06T08:17:06;16.00;99.90
56725;DHT22;42608;52.776;6.968;2023-08-06T08:19:32;16.00;99.90
56725;DHT22;42608;52.776;6.968;2023-08-06T08:21:57;16.00;99.90
56725;DHT22;42608;52.776;6.968;2023-08-06T08:24:23;16.10;99.90
56725;DHT22;42608;52.776;6.968;2023-08-06T08:26:51;16.10;99.90
56725;DHT22;42608;52.776;6.968;2023-08-06T08:29:17;16.20;99.90
56725;DHT22;42608;52.776;6.968;2023-08-06T08:31:43;16.30;99.90
56725;DHT22;42608;52.776;6.968;2023-08-06T08:34:09;16.30;99.90
56725;DHT22;42608;52.776;6.968;2023-08-06T08:36:35;16.40;99.90
56725;DHT22;42608;52.776;6.968;2023-08-06T08:39:01;16.50;99.90
56725;DHT22;42608;52.776;6.968;2023-08-06T08:41:32;16.50;99.90
56725;DHT22;42608;52.776;6.968;2023-08-06T08:43:58;16.60;99.90
56725;DHT22;42608;52.776;6.968;2023-08-06T08:46:25;16.70;99.90
56725;DHT22;42608;52.776;6.968;2023-08-06T08:48:51;16.80;99.90
56725;DHT22;42608;52.776;6.968;2023-08-06T08:51:17;16.80;99.90
56725;DHT22;42608;52.776;6.968;2023-08-06T08:53:43;16.90;99.90
56725;DHT22;42608;52.776;6.968;2023-08-06T08:56:12;17.00;99.90
56725;DHT22;42608;52.776;6.968;2023-08-06T08:58:38;17.00;99.90
56725;DHT22;42608;52.776;6.968;2023-08-06T09:01:04;17.00;99.90
56725;DHT22;42608;52.776;6.968;2023-08-06T09:03:30;17.10;99.90
56725;DHT22;42608;52.776;6.968;2023-08-06T09:05:56;17.10;99.90
56725;DHT22;42608;52.776;6.968;2023-08-06T09:08:24;17.20;99.90
56725;DHT22;42608;52.776;6.968;2023-08-06T09:10:52;17.30;99.90
56725;DHT22;42608;52.776;6.968;2023-08-06T09:13:18;17.30;99.90
56725;DHT22;42608;52.776;6.968;2023-08-06T09:15:45;17.40;99.90
56725;DHT22;42608;52.776;6.968;2023-08-06T09:18:11;17.50;99.90
56725;DHT22;42608;52.776;6.968;2023-08-06T09:20:40;17.50;99.90
56725;DHT22;42608;52.776;6.968;2023-08-06T09:23:09;17.60;99.90
56725;DHT22;42608;52.776;6.968;2023-08-06T09:25:37;17.70;99.90
56725;DHT22;42608;52.776;6.968;2023-08-06T09:28:03;17.80;99.90
56725;DHT22;42608;52.776;6.968;2023-08-06T09:30:33;17.80;99.90
56725;DHT22;42608;52.776;6.968;2023-08-06T09:32:59;17.80;99.90
56725;DHT22;42608;52.776;6.968;2023-08-06T09:35:24;17.90;99.90
56725;DHT22;42608;52.776;6.968;2023-08-06T09:37:50;17.90;99.90
56725;DHT22;42608;52.776;6.968;2023-08-06T09:40:25;17.90;99.90
56725;DHT22;42608;52.776;6.968;2023-08-06T09:42:52;18.00;99.90
56725;DHT22;42608;52.776;6.968;2023-08-06T09:45:17;18.20;99.90
56725;DHT22;42608;52.776;6.968;2023-08-06T09:47:43;18.20;99.90
56725;DHT22;42608;52.776;6.968;2023-08-06T09:50:16;18.20;99.90
56725;DHT22;42608;52.776;6.968;2023-08-06T09:52:42;18.10;99.90
56725;DHT22;42608;52.776;6.968;2023-08-06T09:55:08;18.20;99.90
56725;DHT22;42608;52.776;6.968;2023-08-06T09:57:34;18.30;99.90
56725;DHT22;42608;52.776;6.968;2023-08-06T10:00:00;18.30;99.90
56725;DHT22;42608;52.776;6.968;2023-08-06T10:02:26;18.40;99.90
56725;DHT22;42608;52.776;6.968;2023-08-06T10:04:52;18.40;99.90
56725;DHT22;42608;52.776;6.968;2023-08-06T10:07:18;18.50;99.90
56725;DHT22;42608;52.776;6.968;2023-08-06T10:09:44;18.50;99.90
56725;DHT22;42608;52.776;6.968;2023-08-06T10:12:09;18.50;99.90
56725;DHT22;42608;52.776;6.968;2023-08-06T10:14:35;18.40;99.90
56725;DHT22;42608;52.776;6.968;2023-08-06T10:17:02;18.40;99.90
56725;DHT22;42608;52.776;6.968;2023-08-06T10:19:28;18.40;99.90
56725;DHT22;42608;52.776;6.968;2023-08-06T10:22:10;18.30;99.90
56725;DHT22;42608;52.776;6.968;2023-08-06T10:25:15;18.40;99.90
56725;DHT22;42608;52.776;6.968;2023-08-06T10:32:55;18.70;99.90
56725;DHT22;42608;52.776;6.968;2023-08-06T10:38:04;18.80;99.90
56725;DHT22;42608;52.776;6.968;2023-08-06T10:40:31;18.70;99.90
56725;DHT22;42608;52.776;6.968;2023-08-06T10:43:00;18.70;99.90
56725;DHT22;42608;52.776;6.968;2023-08-06T10:45:26;18.60;99.90
56725;DHT22;42608;52.776;6.968;2023-08-06T10:47:54;18.50;99.90
56725;DHT22;42608;52.776;6.968;2023-08-06T10:50:21;18.50;99.90
56725;DHT22;42608;52.776;6.968;2023-08-06T10:52:46;18.50;99.90
56725;DHT22;42608;52.776;6.968;2023-08-06T10:55:13;18.60;99.90
56725;DHT22;42608;52.776;6.968;2023-08-06T10:57:38;18.70;99.90
56725;DHT22;42608;52.776;6.968;2023-08-06T11:00:05;18.80;99.90
56725;DHT22;42608;52.776;6.968;2023-08-06T11:02:34;18.90;99.90
56725;DHT22;42608;52.776;6.968;2023-08-06T11:05:07;19.00;99.90
56725;DHT22;42608;52.776;6.968;2023-08-06T11:07:33;19.20;99.90
56725;DHT22;42608;52.776;6.968;2023-08-06T11:10:06;19.30;99.90
56725;DHT22;42608;52.776;6.968;2023-08-06T11:12:32;19.40;99.90
56725;DHT22;42608;52.776;6.968;2023-08-06T11:14:58;19.50;99.90
56725;DHT22;42608;52.776;6.968;2023-08-06T11:17:23;19.70;99.90
56725;DHT22;42608;52.776;6.968;2023-08-06T11:19:49;19.60;99.90
56725;DHT22;42608;52.776;6.968;2023-08-06T11:22:15;19.60;99.90
56725;DHT22;42608;52.776;6.968;2023-08-06T11:24:41;19.60;99.90
56725;DHT22;42608;52.776;6.968;2023-08-06T11:27:13;19.60;99.90
56725;DHT22;42608;52.776;6.968;2023-08-06T11:29:40;19.60;99.90
56725;DHT22;42608;52.776;6.968;2023-08-06T11:32:06;19.50;99.90
56725;DHT22;42608;52.776;6.968;2023-08-06T11:34:31;19.60;99.90
56725;DHT22;42608;52.776;6.968;2023-08-06T11:36:57;19.70;99.90
56725;DHT22;42608;52.776;6.968;2023-08-06T11:39:23;19.80;99.90
56725;DHT22;42608;52.776;6.968;2023-08-06T11:41:49;19.90;99.90
56725;DHT22;42608;52.776;6.968;2023-08-06T11:44:14;19.90;99.90
56725;DHT22;42608;52.776;6.968;2023-08-06T11:46:50;20.00;99.90
56725;DHT22;42608;52.776;6.968;2023-08-06T11:49:17;20.00;99.90
56725;DHT22;42608;52.776;6.968;2023-08-06T11:51:47;19.90;99.90
56725;DHT22;42608;52.776;6.968;2023-08-06T11:54:13;19.80;99.90
56725;DHT22;42608;52.776;6.968;2023-08-06T11:56:38;19.70;99.90
56725;DHT22;42608;52.776;6.968;2023-08-06T11:59:04;19.60;99.90
56725;DHT22;42608;52.776;6.968;2023-08-06T12:01:31;19.60;99.90
56725;DHT22;42608;52.776;6.968;2023-08-06T12:03:59;19.50;99.90
56725;DHT22;42608;52.776;6.968;2023-08-06T12:06:28;19.40;99.90
56725;DHT22;42608;52.776;6.968;2023-08-06T12:08:54;19.40;99.90
56725;DHT22;42608;52.776;6.968;2023-08-06T12:11:22;19.30;99.90
56725;DHT22;42608;52.776;6.968;2023-08-06T12:13:51;19.30;99.90
56725;DHT22;42608;52.776;6.968;2023-08-06T12:16:17;19.30;99.90
56725;DHT22;42608;52.776;6.968;2023-08-06T12:18:44;19.30;99.90
56725;DHT22;42608;52.776;6.968;2023-08-06T12:21:10;19.30;99.90
56725;DHT22;42608;52.776;6.968;2023-08-06T12:23:35;19.30;99.90
56725;DHT22;42608;52.776;6.968;2023-08-06T12:26:01;19.30;99.90
56725;DHT22;42608;52.776;6.968;2023-08-06T12:28:27;19.30;99.90
56725;DHT22;42608;52.776;6.968;2023-08-06T12:30:52;19.30;99.90
56725;DHT22;42608;52.776;6.968;2023-08-06T12:33:20;19.40;99.90
56725;DHT22;42608;52.776;6.968;2023-08-06T12:35:46;19.40;99.90
56725;DHT22;42608;52.776;6.968;2023-08-06T12:38:11;19.40;99.90
56725;DHT22;42608;52.776;6.968;2023-08-06T12:40:38;19.50;99.90
56725;DHT22;42608;52.776;6.968;2023-08-06T12:43:04;19.60;99.90
56725;DHT22;42608;52.776;6.968;2023-08-06T12:45:30;19.60;99.90
56725;DHT22;42608;52.776;6.968;2023-08-06T12:47:55;19.70;99.90
56725;DHT22;42608;52.776;6.968;2023-08-06T12:50:21;19.70;99.90
56725;DHT22;42608;52.776;6.968;2023-08-06T12:52:46;19.70;99.90
56725;DHT22;42608;52.776;6.968;2023-08-06T12:55:12;19.80;99.90
56725;DHT22;42608;52.776;6.968;2023-08-06T12:57:38;19.80;99.90
56725;DHT22;42608;52.776;6.968;2023-08-06T13:00:03;19.90;99.90
56725;DHT22;42608;52.776;6.968;2023-08-06T13:02:30;19.90;99.90
56725;DHT22;42608;52.776;6.968;2023-08-06T13:04:57;20.00;99.90
56725;DHT22;42608;52.776;6.968;2023-08-06T13:07:23;20.10;99.90
56725;DHT22;42608;52.776;6.968;2023-08-06T13:09:48;20.10;99.90
56725;DHT22;42608;52.776;6.968;2023-08-06T13:12:14;20.10;99.90
56725;DHT22;42608;52.776;6.968;2023-08-06T13:14:40;20.10;99.90
56725;DHT22;42608;52.776;6.968;2023-08-06T13:17:05;20.20;99.90
56725;DHT22;42608;52.776;6.968;2023-08-06T13:19:32;20.20;99.90
56725;DHT22;42608;52.776;6.968;2023-08-06T13:21:59;20.20;99.90
56725;DHT22;42608;52.776;6.968;2023-08-06T13:24:26;20.20;99.90
56725;DHT22;42608;52.776;6.968;2023-08-06T13:26:52;20.20;99.90
56725;DHT22;42608;52.776;6.968;2023-08-06T13:29:18;20.20;99.90
56725;DHT22;42608;52.776;6.968;2023-08-06T13:31:43;20.10;99.90
56725;DHT22;42608;52.776;6.968;2023-08-06T13:34:09;20.00;99.90
56725;DHT22;42608;52.776;6.968;2023-08-06T13:36:35;20.00;99.90
56725;DHT22;42608;52.776;6.968;2023-08-06T13:39:00;19.90;99.90
56725;DHT22;42608;52.776;6.968;2023-08-06T13:41:26;19.80;99.90
56725;DHT22;42608;52.776;6.968;2023-08-06T13:43:51;19.70;99.90
56725;DHT22;42608;52.776;6.968;2023-08-06T13:46:18;19.60;99.90
56725;DHT22;42608;52.776;6.968;2023-08-06T13:48:45;19.50;99.90
56725;DHT22;42608;52.776;6.968;2023-08-06T13:51:11;19.40;99.90
56725;DHT22;42608;52.776;6.968;2023-08-06T13:53:37;19.30;99.90
56725;DHT22;42608;52.776;6.968;2023-08-06T13:56:04;19.30;99.90
56725;DHT22;42608;52.776;6.968;2023-08-06T13:58:30;19.30;99.90
56725;DHT22;42608;52.776;6.968;2023-08-06T14:00:55;19.30;99.90
56725;DHT22;42608;52.776;6.968;2023-08-06T14:03:22;19.30;99.90
56725;DHT22;42608;52.776;6.968;2023-08-06T14:05:48;19.20;99.90
56725;DHT22;42608;52.776;6.968;2023-08-06T14:08:14;19.20;99.90
56725;DHT22;42608;52.776;6.968;2023-08-06T14:10:40;19.10;99.90
56725;DHT22;42608;52.776;6.968;2023-08-06T14:13:05;19.10;99.90
56725;DHT22;42608;52.776;6.968;2023-08-06T14:15:31;19.10;99.90
56725;DHT22;42608;52.776;6.968;2023-08-06T14:17:58;19.00;99.90
56725;DHT22;42608;52.776;6.968;2023-08-06T14:20:24;18.60;99.90
56725;DHT22;42608;52.776;6.968;2023-08-06T14:22:49;18.30;99.90
56725;DHT22;42608;52.776;6.968;2023-08-06T14:25:15;18.10;99.90
56725;DHT22;42608;52.776;6.968;2023-08-06T14:27:40;18.00;99.90
56725;DHT22;42608;52.776;6.968;2023-08-06T14:30:06;17.90;99.90
56725;DHT22;42608;52.776;6.968;2023-08-06T14:32:32;17.90;99.90
56725;DHT22;42608;52.776;6.968;2023-08-06T14:34:58;17.90;99.90
56725;DHT22;42608;52.776;6.968;2023-08-06T14:37:24;17.90;99.90
56725;DHT22;42608;52.776;6.968;2023-08-06T14:39:50;17.90;99.90
56725;DHT22;42608;52.776;6.968;2023-08-06T14:42:16;17.90;99.90
56725;DHT22;42608;52.776;6.968;2023-08-06T14:44:41;17.90;99.90
56725;DHT22;42608;52.776;6.968;2023-08-06T14:47:07;17.90;99.90
56725;DHT22;42608;52.776;6.968;2023-08-06T14:49:32;17.90;99.90
56725;DHT22;42608;52.776;6.968;2023-08-06T14:51:58;17.90;99.90
56725;DHT22;42608;52.776;6.968;2023-08-06T14:54:25;17.90;99.90
56725;DHT22;42608;52.776;6.968;2023-08-06T14:56:51;17.90;99.90
56725;DHT22;42608;52.776;6.968;2023-08-06T14:59:17;17.90;99.90
56725;DHT22;42608;52.776;6.968;2023-08-06T15:01:43;17.90;99.90
56725;DHT22;42608;52.776;6.968;2023-08-06T15:04:08;17.90;99.90
56725;DHT22;42608;52.776;6.968;2023-08-06T15:06:34;18.00;99.90
56725;DHT22;42608;52.776;6.968;2023-08-06T15:08:59;18.00;99.90
56725;DHT22;42608;52.776;6.968;2023-08-06T15:11:26;18.00;99.90
56725;DHT22;42608;52.776;6.968;2023-08-06T15:13:52;18.00;99.90
56725;DHT22;42608;52.776;6.968;2023-08-06T15:16:17;18.00;99.90
56725;DHT22;42608;52.776;6.968;2023-08-06T15:18:43;18.10;99.90
56725;DHT22;42608;52.776;6.968;2023-08-06T15:21:09;18.10;99.90
56725;DHT22;42608;52.776;6.968;2023-08-06T15:23:35;18.10;99.90
56725;DHT22;42608;52.776;6.968;2023-08-06T15:26:01;18.20;99.90
56725;DHT22;42608;52.776;6.968;2023-08-06T15:28:26;18.20;99.90
56725;DHT22;42608;52.776;6.968;2023-08-06T15:30:52;18.20;99.90
56725;DHT22;42608;52.776;6.968;2023-08-06T15:33:19;18.30;99.90
56725;DHT22;42608;52.776;6.968;2023-08-06T15:35:45;18.20;99.90
56725;DHT22;42608;52.776;6.968;2023-08-06T15:38:10;18.30;99.90
56725;DHT22;42608;52.776;6.968;2023-08-06T15:40:36;18.30;99.90